Akane — H3UD — position and weather

sailwx.info

Track history (hours):
 
Tides and Currents Weather Stations Pressure Air Temp Water Temp Dewpoint Dewpoint Depression Visibility Wind Speed Wind Dir Waves Ship Positions

Akane

Last reported at 2017-Jan-12 07:33 UTC. Time now 2017-Jan-18 01:33 UTC.
Position N 34°05' E 134°58'.

Length 180 m; draft 8 m.

Type: Tanker. MMSI: 353172000.

Date/timePositionNaut miles runAvg speedWind from/ knotsBaromVisibWave heightAir tempDewpointWater temp
2017-Jan-12 07:33N 34°05' E 134°58'1613.3
2017-Jan-12 06:23N 34°21' E 134°60'1214.2
2017-Jan-12 05:32N 34°32' E 135°06'1010.2
2017-Jan-12 04:33N 34°35' E 134°54'  
2017-Jan-09 21:12N 34°38' E 134°59'711.4
2017-Jan-09 20:33N 34°34' E 135°07'7 6.9
2017-Jan-09 19:33N 34°28' E 135°05'1212.2
2017-Jan-09 18:33N 34°17' E 134°59'1212.2
2017-Jan-09 17:33N 34°04' E 134°59'  
Track history (hours):
 
Tides and Currents Weather Stations Pressure Air Temp Water Temp Dewpoint Dewpoint Depression Visibility Wind Speed Wind Dir Waves Ship Positions

Akane

Last reported at 2017-Jan-12 07:33 UTC. Time now 2017-Jan-18 01:33 UTC.
Position N 34°05' E 134°58'.

Length 180 m; draft 8 m.

Type: Tanker. MMSI: 353172000.

Date/timePositionNaut miles runAvg speedWind from/ knotsBaromVisibWave heightAir tempDewpointWater temp
2017-Jan-12 07:33N 34°05' E 134°58'1613.3
2017-Jan-12 06:23N 34°21' E 134°60'1214.2
2017-Jan-12 05:32N 34°32' E 135°06'1010.2
2017-Jan-12 04:33N 34°35' E 134°54'  
2017-Jan-09 21:12N 34°38' E 134°59'711.4
2017-Jan-09 20:33N 34°34' E 135°07'7 6.9
2017-Jan-09 19:33N 34°28' E 135°05'1212.2
2017-Jan-09 18:33N 34°17' E 134°59'1212.2
2017-Jan-09 17:33N 34°04' E 134°59'  

Dump ship's entire track history